sensor_id;sensor_type;location;lat;lon;timestamp;temperature;humidity
55771;DHT22;41687;-33.234;-60.334;2023-04-03T00:01:08;20.30;74.40
55771;DHT22;41687;-33.234;-60.334;2023-04-03T00:03:36;20.40;73.90
55771;DHT22;41687;-33.234;-60.334;2023-04-03T00:06:04;20.40;74.00
55771;DHT22;41687;-33.234;-60.334;2023-04-03T00:08:34;20.30;74.10
55771;DHT22;41687;-33.234;-60.334;2023-04-03T00:11:03;20.40;74.00
55771;DHT22;41687;-33.234;-60.334;2023-04-03T00:13:31;20.30;73.90
55771;DHT22;41687;-33.234;-60.334;2023-04-03T00:15:58;20.40;73.80
55771;DHT22;41687;-33.234;-60.334;2023-04-03T00:18:27;20.40;73.60
55771;DHT22;41687;-33.234;-60.334;2023-04-03T00:20:54;20.40;73.50
55771;DHT22;41687;-33.234;-60.334;2023-04-03T00:23:22;20.40;73.50
55771;DHT22;41687;-33.234;-60.334;2023-04-03T00:25:51;20.30;73.20
55771;DHT22;41687;-33.234;-60.334;2023-04-03T00:28:19;20.40;72.90
55771;DHT22;41687;-33.234;-60.334;2023-04-03T00:30:51;20.40;72.90
55771;DHT22;41687;-33.234;-60.334;2023-04-03T00:33:19;20.40;72.50
55771;DHT22;41687;-33.234;-60.334;2023-04-03T00:35:50;20.40;72.30
55771;DHT22;41687;-33.234;-60.334;2023-04-03T00:38:18;20.40;72.40
55771;DHT22;41687;-33.234;-60.334;2023-04-03T00:40:48;20.40;72.30
55771;DHT22;41687;-33.234;-60.334;2023-04-03T00:43:19;20.40;72.30
55771;DHT22;41687;-33.234;-60.334;2023-04-03T00:45:55;20.40;72.50
55771;DHT22;41687;-33.234;-60.334;2023-04-03T00:48:36;20.40;72.50
55771;DHT22;41687;-33.234;-60.334;2023-04-03T00:51:09;20.40;72.50
55771;DHT22;41687;-33.234;-60.334;2023-04-03T00:53:44;20.40;72.50
55771;DHT22;41687;-33.234;-60.334;2023-04-03T00:56:16;20.40;72.60
55771;DHT22;41687;-33.234;-60.334;2023-04-03T00:58:54;20.40;72.90
55771;DHT22;41687;-33.234;-60.334;2023-04-03T01:01:26;20.40;73.10
55771;DHT22;41687;-33.234;-60.334;2023-04-03T01:03:55;20.40;73.10
55771;DHT22;41687;-33.234;-60.334;2023-04-03T01:06:27;20.40;73.10
55771;DHT22;41687;-33.234;-60.334;2023-04-03T01:09:01;20.40;73.50
55771;DHT22;41687;-33.234;-60.334;2023-04-03T01:11:29;20.30;73.30
55771;DHT22;41687;-33.234;-60.334;2023-04-03T01:13:58;20.30;74.00
55771;DHT22;41687;-33.234;-60.334;2023-04-03T01:16:26;20.20;74.30
55771;DHT22;41687;-33.234;-60.334;2023-04-03T01:18:55;20.20;74.30
55771;DHT22;41687;-33.234;-60.334;2023-04-03T01:24:36;20.10;75.30
55771;DHT22;41687;-33.234;-60.334;2023-04-03T01:27:10;20.10;75.50
55771;DHT22;41687;-33.234;-60.334;2023-04-03T01:29:40;20.10;74.70
55771;DHT22;41687;-33.234;-60.334;2023-04-03T01:32:10;20.10;74.90
55771;DHT22;41687;-33.234;-60.334;2023-04-03T01:34:37;20.10;75.20
55771;DHT22;41687;-33.234;-60.334;2023-04-03T01:37:06;20.10;75.20
55771;DHT22;41687;-33.234;-60.334;2023-04-03T01:39:33;20.10;75.10
55771;DHT22;41687;-33.234;-60.334;2023-04-03T01:42:01;20.10;75.20
55771;DHT22;41687;-33.234;-60.334;2023-04-03T01:44:34;20.10;75.80
55771;DHT22;41687;-33.234;-60.334;2023-04-03T01:47:02;20.10;75.30
55771;DHT22;41687;-33.234;-60.334;2023-04-03T01:49:32;20.10;75.40
55771;DHT22;41687;-33.234;-60.334;2023-04-03T01:52:00;20.10;76.00
55771;DHT22;41687;-33.234;-60.334;2023-04-03T01:54:28;20.00;76.00
55771;DHT22;41687;-33.234;-60.334;2023-04-03T01:56:56;20.10;76.20
55771;DHT22;41687;-33.234;-60.334;2023-04-03T01:59:23;20.10;76.10
55771;DHT22;41687;-33.234;-60.334;2023-04-03T02:01:51;20.00;76.10
55771;DHT22;41687;-33.234;-60.334;2023-04-03T02:04:19;20.10;75.60
55771;DHT22;41687;-33.234;-60.334;2023-04-03T02:06:47;20.00;75.60
55771;DHT22;41687;-33.234;-60.334;2023-04-03T02:09:15;20.00;75.80
55771;DHT22;41687;-33.234;-60.334;2023-04-03T02:11:43;20.00;75.80
55771;DHT22;41687;-33.234;-60.334;2023-04-03T02:14:12;20.00;76.30
55771;DHT22;41687;-33.234;-60.334;2023-04-03T02:16:39;20.00;75.90
55771;DHT22;41687;-33.234;-60.334;2023-04-03T02:19:07;19.90;76.20
55771;DHT22;41687;-33.234;-60.334;2023-04-03T02:21:34;19.90;76.40
55771;DHT22;41687;-33.234;-60.334;2023-04-03T02:24:02;19.90;76.70
55771;DHT22;41687;-33.234;-60.334;2023-04-03T02:26:30;19.90;76.80
55771;DHT22;41687;-33.234;-60.334;2023-04-03T02:28:57;19.90;77.00
55771;DHT22;41687;-33.234;-60.334;2023-04-03T02:31:25;19.90;76.80
55771;DHT22;41687;-33.234;-60.334;2023-04-03T02:33:53;19.90;77.10
55771;DHT22;41687;-33.234;-60.334;2023-04-03T02:36:20;19.80;77.60
55771;DHT22;41687;-33.234;-60.334;2023-04-03T02:38:53;19.80;77.00
55771;DHT22;41687;-33.234;-60.334;2023-04-03T02:41:21;19.80;77.30
55771;DHT22;41687;-33.234;-60.334;2023-04-03T02:43:51;19.80;77.30
55771;DHT22;41687;-33.234;-60.334;2023-04-03T02:46:19;19.80;77.50
55771;DHT22;41687;-33.234;-60.334;2023-04-03T02:48:46;19.80;77.60
55771;DHT22;41687;-33.234;-60.334;2023-04-03T02:51:15;19.80;77.90
55771;DHT22;41687;-33.234;-60.334;2023-04-03T02:53:42;19.80;77.80
55771;DHT22;41687;-33.234;-60.334;2023-04-03T02:56:16;19.80;78.40
55771;DHT22;41687;-33.234;-60.334;2023-04-03T02:58:45;19.80;78.20
55771;DHT22;41687;-33.234;-60.334;2023-04-03T03:01:14;19.80;78.40
55771;DHT22;41687;-33.234;-60.334;2023-04-03T03:03:42;19.80;78.80
55771;DHT22;41687;-33.234;-60.334;2023-04-03T03:06:15;19.70;79.20
55771;DHT22;41687;-33.234;-60.334;2023-04-03T03:08:43;19.70;79.60
55771;DHT22;41687;-33.234;-60.334;2023-04-03T03:11:11;19.60;79.60
55771;DHT22;41687;-33.234;-60.334;2023-04-03T03:13:39;19.60;79.40
55771;DHT22;41687;-33.234;-60.334;2023-04-03T03:16:07;19.60;79.50
55771;DHT22;41687;-33.234;-60.334;2023-04-03T03:18:35;19.60;79.60
55771;DHT22;41687;-33.234;-60.334;2023-04-03T03:21:04;19.70;79.20
55771;DHT22;41687;-33.234;-60.334;2023-04-03T03:23:32;19.70;79.20
55771;DHT22;41687;-33.234;-60.334;2023-04-03T03:26:02;19.70;79.20
55771;DHT22;41687;-33.234;-60.334;2023-04-03T03:28:31;19.70;79.10
55771;DHT22;41687;-33.234;-60.334;2023-04-03T03:30:59;19.70;79.20
55771;DHT22;41687;-33.234;-60.334;2023-04-03T03:33:27;19.70;79.30
55771;DHT22;41687;-33.234;-60.334;2023-04-03T03:35:55;19.70;79.10
55771;DHT22;41687;-33.234;-60.334;2023-04-03T03:38:23;19.70;79.30
55771;DHT22;41687;-33.234;-60.334;2023-04-03T03:40:52;19.70;79.60
55771;DHT22;41687;-33.234;-60.334;2023-04-03T03:43:21;19.70;80.20
55771;DHT22;41687;-33.234;-60.334;2023-04-03T03:45:51;19.60;80.50
55771;DHT22;41687;-33.234;-60.334;2023-04-03T03:48:20;19.60;80.90
55771;DHT22;41687;-33.234;-60.334;2023-04-03T03:50:48;19.60;80.90
55771;DHT22;41687;-33.234;-60.334;2023-04-03T03:53:17;19.60;80.70
55771;DHT22;41687;-33.234;-60.334;2023-04-03T03:55:47;19.60;81.20
55771;DHT22;41687;-33.234;-60.334;2023-04-03T03:58:14;19.50;81.80
55771;DHT22;41687;-33.234;-60.334;2023-04-03T04:00:42;19.50;82.10
55771;DHT22;41687;-33.234;-60.334;2023-04-03T04:03:11;19.50;83.30
55771;DHT22;41687;-33.234;-60.334;2023-04-03T04:05:40;19.30;84.00
55771;DHT22;41687;-33.234;-60.334;2023-04-03T04:08:08;19.30;83.90
55771;DHT22;41687;-33.234;-60.334;2023-04-03T04:10:38;19.20;85.10
55771;DHT22;41687;-33.234;-60.334;2023-04-03T04:13:08;19.20;85.30
55771;DHT22;41687;-33.234;-60.334;2023-04-03T04:15:35;19.10;85.10
55771;DHT22;41687;-33.234;-60.334;2023-04-03T04:18:03;19.10;85.50
55771;DHT22;41687;-33.234;-60.334;2023-04-03T04:20:34;19.10;84.50
55771;DHT22;41687;-33.234;-60.334;2023-04-03T04:23:04;19.10;84.80
55771;DHT22;41687;-33.234;-60.334;2023-04-03T04:25:32;19.10;84.50
55771;DHT22;41687;-33.234;-60.334;2023-04-03T04:28:00;19.10;83.70
55771;DHT22;41687;-33.234;-60.334;2023-04-03T04:30:28;19.10;82.40
55771;DHT22;41687;-33.234;-60.334;2023-04-03T04:32:58;19.00;82.50
55771;DHT22;41687;-33.234;-60.334;2023-04-03T04:35:26;19.00;82.50
55771;DHT22;41687;-33.234;-60.334;2023-04-03T04:37:54;19.00;82.50
55771;DHT22;41687;-33.234;-60.334;2023-04-03T04:40:22;18.90;82.80
55771;DHT22;41687;-33.234;-60.334;2023-04-03T04:42:50;18.80;82.60
55771;DHT22;41687;-33.234;-60.334;2023-04-03T04:45:18;18.60;83.30
55771;DHT22;41687;-33.234;-60.334;2023-04-03T04:47:47;18.60;83.30
55771;DHT22;41687;-33.234;-60.334;2023-04-03T04:50:15;18.50;83.90
55771;DHT22;41687;-33.234;-60.334;2023-04-03T04:52:44;18.40;83.50
55771;DHT22;41687;-33.234;-60.334;2023-04-03T04:55:11;18.40;83.90
55771;DHT22;41687;-33.234;-60.334;2023-04-03T04:57:39;18.40;83.70
55771;DHT22;41687;-33.234;-60.334;2023-04-03T05:00:08;18.30;84.40
55771;DHT22;41687;-33.234;-60.334;2023-04-03T05:02:36;18.20;84.70
55771;DHT22;41687;-33.234;-60.334;2023-04-03T05:05:04;18.20;84.60
55771;DHT22;41687;-33.234;-60.334;2023-04-03T05:07:32;18.20;83.60
55771;DHT22;41687;-33.234;-60.334;2023-04-03T05:10:02;18.10;84.70
55771;DHT22;41687;-33.234;-60.334;2023-04-03T05:12:32;17.90;85.20
55771;DHT22;41687;-33.234;-60.334;2023-04-03T05:15:03;17.90;85.10
55771;DHT22;41687;-33.234;-60.334;2023-04-03T05:17:32;17.80;85.40
55771;DHT22;41687;-33.234;-60.334;2023-04-03T05:20:00;17.80;85.80
55771;DHT22;41687;-33.234;-60.334;2023-04-03T05:22:29;17.70;85.50
55771;DHT22;41687;-33.234;-60.334;2023-04-03T05:25:02;17.70;85.60
55771;DHT22;41687;-33.234;-60.334;2023-04-03T05:27:31;17.70;85.60
55771;DHT22;41687;-33.234;-60.334;2023-04-03T05:29:59;17.60;86.00
55771;DHT22;41687;-33.234;-60.334;2023-04-03T05:32:27;17.60;86.50
55771;DHT22;41687;-33.234;-60.334;2023-04-03T05:35:07;17.70;86.50
55771;DHT22;41687;-33.234;-60.334;2023-04-03T05:37:36;17.70;86.20
55771;DHT22;41687;-33.234;-60.334;2023-04-03T05:40:05;17.60;86.30
55771;DHT22;41687;-33.234;-60.334;2023-04-03T05:42:33;17.70;86.70
55771;DHT22;41687;-33.234;-60.334;2023-04-03T05:45:02;17.60;86.90
55771;DHT22;41687;-33.234;-60.334;2023-04-03T05:47:30;17.60;87.90
55771;DHT22;41687;-33.234;-60.334;2023-04-03T05:49:58;17.60;87.80
55771;DHT22;41687;-33.234;-60.334;2023-04-03T05:52:30;17.50;88.00
55771;DHT22;41687;-33.234;-60.334;2023-04-03T05:55:00;17.50;89.70
55771;DHT22;41687;-33.234;-60.334;2023-04-03T05:57:29;17.50;90.10
55771;DHT22;41687;-33.234;-60.334;2023-04-03T05:59:57;17.50;90.00
55771;DHT22;41687;-33.234;-60.334;2023-04-03T06:02:25;17.60;90.40
55771;DHT22;41687;-33.234;-60.334;2023-04-03T06:04:54;17.60;90.50
55771;DHT22;41687;-33.234;-60.334;2023-04-03T06:07:23;17.60;90.70
55771;DHT22;41687;-33.234;-60.334;2023-04-03T06:09:56;17.60;91.20
55771;DHT22;41687;-33.234;-60.334;2023-04-03T06:12:24;17.70;91.10
55771;DHT22;41687;-33.234;-60.334;2023-04-03T06:14:52;17.70;91.70
55771;DHT22;41687;-33.234;-60.334;2023-04-03T06:17:20;17.60;91.30
55771;DHT22;41687;-33.234;-60.334;2023-04-03T06:19:48;17.60;91.30
55771;DHT22;41687;-33.234;-60.334;2023-04-03T06:22:16;17.60;91.30
55771;DHT22;41687;-33.234;-60.334;2023-04-03T06:24:45;17.60;90.90
55771;DHT22;41687;-33.234;-60.334;2023-04-03T06:27:13;17.50;92.10
55771;DHT22;41687;-33.234;-60.334;2023-04-03T06:29:41;17.50;91.90
55771;DHT22;41687;-33.234;-60.334;2023-04-03T06:32:08;17.50;91.90
55771;DHT22;41687;-33.234;-60.334;2023-04-03T06:34:36;17.50;92.10
55771;DHT22;41687;-33.234;-60.334;2023-04-03T06:37:04;17.60;91.90
55771;DHT22;41687;-33.234;-60.334;2023-04-03T06:39:32;17.60;91.60
55771;DHT22;41687;-33.234;-60.334;2023-04-03T06:41:59;17.70;91.30
55771;DHT22;41687;-33.234;-60.334;2023-04-03T06:44:35;17.70;91.40
55771;DHT22;41687;-33.234;-60.334;2023-04-03T06:47:03;17.60;91.70
55771;DHT22;41687;-33.234;-60.334;2023-04-03T06:49:31;17.70;91.30
55771;DHT22;41687;-33.234;-60.334;2023-04-03T06:51:59;17.60;91.60
55771;DHT22;41687;-33.234;-60.334;2023-04-03T06:54:26;17.60;91.60
55771;DHT22;41687;-33.234;-60.334;2023-04-03T06:56:54;17.60;92.10
55771;DHT22;41687;-33.234;-60.334;2023-04-03T06:59:21;17.60;91.90
55771;DHT22;41687;-33.234;-60.334;2023-04-03T07:01:49;17.50;92.30
55771;DHT22;41687;-33.234;-60.334;2023-04-03T07:04:17;17.50;92.20
55771;DHT22;41687;-33.234;-60.334;2023-04-03T07:06:47;17.50;92.30
55771;DHT22;41687;-33.234;-60.334;2023-04-03T07:09:15;17.50;92.60
55771;DHT22;41687;-33.234;-60.334;2023-04-03T07:11:43;17.50;92.50
55771;DHT22;41687;-33.234;-60.334;2023-04-03T07:14:11;17.50;92.50
55771;DHT22;41687;-33.234;-60.334;2023-04-03T07:16:39;17.50;92.30
55771;DHT22;41687;-33.234;-60.334;2023-04-03T07:19:06;17.50;92.30
55771;DHT22;41687;-33.234;-60.334;2023-04-03T07:21:35;17.50;92.60
55771;DHT22;41687;-33.234;-60.334;2023-04-03T07:24:03;17.50;92.50
55771;DHT22;41687;-33.234;-60.334;2023-04-03T07:26:31;17.50;92.60
55771;DHT22;41687;-33.234;-60.334;2023-04-03T07:28:58;17.50;92.50
55771;DHT22;41687;-33.234;-60.334;2023-04-03T07:31:26;17.50;92.70
55771;DHT22;41687;-33.234;-60.334;2023-04-03T07:33:53;17.50;92.40
55771;DHT22;41687;-33.234;-60.334;2023-04-03T07:36:23;17.50;93.30
55771;DHT22;41687;-33.234;-60.334;2023-04-03T07:38:50;17.50;93.00
55771;DHT22;41687;-33.234;-60.334;2023-04-03T07:41:19;17.50;92.90
55771;DHT22;41687;-33.234;-60.334;2023-04-03T07:43:50;17.50;93.10
55771;DHT22;41687;-33.234;-60.334;2023-04-03T07:46:17;17.50;93.50
55771;DHT22;41687;-33.234;-60.334;2023-04-03T07:48:45;17.50;93.40
55771;DHT22;41687;-33.234;-60.334;2023-04-03T07:51:13;17.40;93.40
55771;DHT22;41687;-33.234;-60.334;2023-04-03T07:53:41;17.50;93.30
55771;DHT22;41687;-33.234;-60.334;2023-04-03T07:56:09;17.50;94.00
55771;DHT22;41687;-33.234;-60.334;2023-04-03T07:58:37;17.50;93.70
55771;DHT22;41687;-33.234;-60.334;2023-04-03T08:01:05;17.50;93.90
55771;DHT22;41687;-33.234;-60.334;2023-04-03T08:03:33;17.50;94.10
55771;DHT22;41687;-33.234;-60.334;2023-04-03T08:06:06;17.60;94.40
55771;DHT22;41687;-33.234;-60.334;2023-04-03T08:08:34;17.60;94.10
55771;DHT22;41687;-33.234;-60.334;2023-04-03T08:11:02;17.60;94.00
55771;DHT22;41687;-33.234;-60.334;2023-04-03T08:13:33;17.60;94.10
55771;DHT22;41687;-33.234;-60.334;2023-04-03T08:16:17;17.50;94.60
55771;DHT22;41687;-33.234;-60.334;2023-04-03T08:18:46;17.60;94.40
55771;DHT22;41687;-33.234;-60.334;2023-04-03T08:21:13;17.70;94.60
55771;DHT22;41687;-33.234;-60.334;2023-04-03T08:23:41;17.60;94.50
55771;DHT22;41687;-33.234;-60.334;2023-04-03T08:26:15;17.50;94.40
55771;DHT22;41687;-33.234;-60.334;2023-04-03T08:28:43;17.50;94.90
55771;DHT22;41687;-33.234;-60.334;2023-04-03T08:31:13;17.50;94.40
55771;DHT22;41687;-33.234;-60.334;2023-04-03T08:33:42;17.50;94.60
55771;DHT22;41687;-33.234;-60.334;2023-04-03T08:36:20;17.60;94.90
55771;DHT22;41687;-33.234;-60.334;2023-04-03T08:38:49;17.60;95.20
55771;DHT22;41687;-33.234;-60.334;2023-04-03T08:41:29;17.50;94.70
55771;DHT22;41687;-33.234;-60.334;2023-04-03T08:47:24;17.40;94.20
55771;DHT22;41687;-33.234;-60.334;2023-04-03T08:49:59;17.40;94.40
55771;DHT22;41687;-33.234;-60.334;2023-04-03T08:52:46;17.40;94.20
55771;DHT22;41687;-33.234;-60.334;2023-04-03T08:58:06;17.40;94.40
55771;DHT22;41687;-33.234;-60.334;2023-04-03T09:03:23;17.30;95.00
55771;DHT22;41687;-33.234;-60.334;2023-04-03T09:09:12;17.30;94.60
55771;DHT22;41687;-33.234;-60.334;2023-04-03T09:14:56;17.30;94.60
55771;DHT22;41687;-33.234;-60.334;2023-04-03T09:23:32;17.30;95.00
55771;DHT22;41687;-33.234;-60.334;2023-04-03T09:26:18;17.30;95.30
55771;DHT22;41687;-33.234;-60.334;2023-04-03T09:28:47;17.30;95.30
55771;DHT22;41687;-33.234;-60.334;2023-04-03T09:31:21;17.20;95.10
55771;DHT22;41687;-33.234;-60.334;2023-04-03T09:33:59;17.20;95.00
55771;DHT22;41687;-33.234;-60.334;2023-04-03T09:36:47;17.20;95.10
55771;DHT22;41687;-33.234;-60.334;2023-04-03T09:39:26;17.20;95.10
55771;DHT22;41687;-33.234;-60.334;2023-04-03T09:42:01;17.20;95.10
55771;DHT22;41687;-33.234;-60.334;2023-04-03T09:44:33;17.20;95.00
55771;DHT22;41687;-33.234;-60.334;2023-04-03T09:47:27;17.20;95.10
55771;DHT22;41687;-33.234;-60.334;2023-04-03T09:52:43;17.10;95.40
55771;DHT22;41687;-33.234;-60.334;2023-04-03T09:55:23;17.10;94.80
55771;DHT22;41687;-33.234;-60.334;2023-04-03T09:58:01;17.20;95.30
55771;DHT22;41687;-33.234;-60.334;2023-04-03T10:00:38;17.10;95.00
55771;DHT22;41687;-33.234;-60.334;2023-04-03T10:03:25;17.20;94.90
55771;DHT22;41687;-33.234;-60.334;2023-04-03T10:05:54;17.10;95.30
55771;DHT22;41687;-33.234;-60.334;2023-04-03T10:08:29;17.00;95.50
55771;DHT22;41687;-33.234;-60.334;2023-04-03T10:11:08;17.00;95.40
55771;DHT22;41687;-33.234;-60.334;2023-04-03T10:13:56;17.10;95.40
55771;DHT22;41687;-33.234;-60.334;2023-04-03T10:16:42;17.10;95.50
55771;DHT22;41687;-33.234;-60.334;2023-04-03T10:19:34;17.10;95.50
55771;DHT22;41687;-33.234;-60.334;2023-04-03T10:22:16;17.10;95.10
55771;DHT22;41687;-33.234;-60.334;2023-04-03T10:28:03;17.20;95.20
55771;DHT22;41687;-33.234;-60.334;2023-04-03T10:30:59;17.10;95.80
55771;DHT22;41687;-33.234;-60.334;2023-04-03T10:53:24;17.10;96.10
55771;DHT22;41687;-33.234;-60.334;2023-04-03T10:57:04;17.00;96.20
55771;DHT22;41687;-33.234;-60.334;2023-04-03T11:01:37;17.10;95.50
55771;DHT22;41687;-33.234;-60.334;2023-04-03T11:04:07;17.10;95.40
55771;DHT22;41687;-33.234;-60.334;2023-04-03T11:06:56;17.00;95.60
55771;DHT22;41687;-33.234;-60.334;2023-04-03T11:09:44;17.10;95.80
55771;DHT22;41687;-33.234;-60.334;2023-04-03T11:12:42;17.10;96.20
55771;DHT22;41687;-33.234;-60.334;2023-04-03T11:15:17;17.20;96.20
55771;DHT22;41687;-33.234;-60.334;2023-04-03T11:17:58;17.20;95.90
55771;DHT22;41687;-33.234;-60.334;2023-04-03T11:20:29;17.10;95.90
55771;DHT22;41687;-33.234;-60.334;2023-04-03T11:23:03;17.10;95.60
55771;DHT22;41687;-33.234;-60.334;2023-04-03T11:25:35;17.10;96.20
55771;DHT22;41687;-33.234;-60.334;2023-04-03T11:28:06;17.10;96.20
55771;DHT22;41687;-33.234;-60.334;2023-04-03T11:33:31;17.30;96.20
55771;DHT22;41687;-33.234;-60.334;2023-04-03T11:36:26;17.30;95.90
55771;DHT22;41687;-33.234;-60.334;2023-04-03T11:39:05;17.40;96.40
55771;DHT22;41687;-33.234;-60.334;2023-04-03T11:41:35;17.60;95.80
55771;DHT22;41687;-33.234;-60.334;2023-04-03T11:44:25;17.50;95.50
55771;DHT22;41687;-33.234;-60.334;2023-04-03T11:46:56;17.60;95.70
55771;DHT22;41687;-33.234;-60.334;2023-04-03T11:49:52;17.70;95.30
55771;DHT22;41687;-33.234;-60.334;2023-04-03T12:00:48;19.30;92.90
55771;DHT22;41687;-33.234;-60.334;2023-04-03T12:16:30;19.00;92.80
55771;DHT22;41687;-33.234;-60.334;2023-04-03T12:29:55;18.00;94.90
55771;DHT22;41687;-33.234;-60.334;2023-04-03T12:33:02;17.90;95.20
55771;DHT22;41687;-33.234;-60.334;2023-04-03T12:35:44;17.90;95.50
55771;DHT22;41687;-33.234;-60.334;2023-04-03T12:46:51;17.90;95.90
55771;DHT22;41687;-33.234;-60.334;2023-04-03T12:49:41;17.90;96.30
55771;DHT22;41687;-33.234;-60.334;2023-04-03T12:52:32;18.00;96.10
55771;DHT22;41687;-33.234;-60.334;2023-04-03T12:55:01;18.00;96.10
55771;DHT22;41687;-33.234;-60.334;2023-04-03T12:57:32;18.10;95.80
55771;DHT22;41687;-33.234;-60.334;2023-04-03T12:59:59;18.10;95.70
55771;DHT22;41687;-33.234;-60.334;2023-04-03T13:05:02;18.20;95.60
55771;DHT22;41687;-33.234;-60.334;2023-04-03T13:07:34;18.20;95.80
55771;DHT22;41687;-33.234;-60.334;2023-04-03T13:12:50;18.20;95.30
55771;DHT22;41687;-33.234;-60.334;2023-04-03T13:17:50;18.30;95.30
55771;DHT22;41687;-33.234;-60.334;2023-04-03T13:20:28;18.20;95.40
55771;DHT22;41687;-33.234;-60.334;2023-04-03T13:23:22;18.20;95.60
55771;DHT22;41687;-33.234;-60.334;2023-04-03T13:25:50;18.20;95.90
55771;DHT22;41687;-33.234;-60.334;2023-04-03T13:28:24;18.20;95.80
55771;DHT22;41687;-33.234;-60.334;2023-04-03T13:33:34;18.30;96.80
55771;DHT22;41687;-33.234;-60.334;2023-04-03T13:36:09;18.20;96.90
55771;DHT22;41687;-33.234;-60.334;2023-04-03T13:38:40;18.30;97.40
55771;DHT22;41687;-33.234;-60.334;2023-04-03T13:41:35;18.40;97.70
55771;DHT22;41687;-33.234;-60.334;2023-04-03T13:50:00;18.60;97.80
55771;DHT22;41687;-33.234;-60.334;2023-04-03T13:52:39;18.70;97.50
55771;DHT22;41687;-33.234;-60.334;2023-04-03T13:55:33;18.80;97.20
55771;DHT22;41687;-33.234;-60.334;2023-04-03T13:58:20;18.80;96.70
55771;DHT22;41687;-33.234;-60.334;2023-04-03T14:01:17;18.90;95.80
55771;DHT22;41687;-33.234;-60.334;2023-04-03T14:03:57;18.90;95.00
55771;DHT22;41687;-33.234;-60.334;2023-04-03T14:06:25;18.90;94.80
55771;DHT22;41687;-33.234;-60.334;2023-04-03T14:08:53;19.00;94.70
55771;DHT22;41687;-33.234;-60.334;2023-04-03T14:11:28;19.20;94.60
55771;DHT22;41687;-33.234;-60.334;2023-04-03T14:14:01;19.20;93.70
55771;DHT22;41687;-33.234;-60.334;2023-04-03T14:16:36;19.20;93.60
55771;DHT22;41687;-33.234;-60.334;2023-04-03T14:19:04;19.00;93.20
55771;DHT22;41687;-33.234;-60.334;2023-04-03T14:21:32;19.00;93.40
55771;DHT22;41687;-33.234;-60.334;2023-04-03T14:24:00;18.90;93.70
55771;DHT22;41687;-33.234;-60.334;2023-04-03T14:26:28;18.80;93.80
55771;DHT22;41687;-33.234;-60.334;2023-04-03T14:28:57;18.80;94.00
55771;DHT22;41687;-33.234;-60.334;2023-04-03T14:31:25;18.70;94.10
55771;DHT22;41687;-33.234;-60.334;2023-04-03T14:33:53;18.80;94.20
55771;DHT22;41687;-33.234;-60.334;2023-04-03T14:36:24;18.90;93.90
55771;DHT22;41687;-33.234;-60.334;2023-04-03T14:38:56;18.90;93.70
55771;DHT22;41687;-33.234;-60.334;2023-04-03T14:41:24;18.90;93.90
55771;DHT22;41687;-33.234;-60.334;2023-04-03T14:43:53;18.70;94.10
55771;DHT22;41687;-33.234;-60.334;2023-04-03T14:46:34;18.60;94.60
55771;DHT22;41687;-33.234;-60.334;2023-04-03T14:49:14;18.50;94.20
55771;DHT22;41687;-33.234;-60.334;2023-04-03T14:51:42;18.40;94.40
55771;DHT22;41687;-33.234;-60.334;2023-04-03T14:54:16;18.50;95.00
55771;DHT22;41687;-33.234;-60.334;2023-04-03T14:56:45;18.50;95.10
55771;DHT22;41687;-33.234;-60.334;2023-04-03T14:59:13;18.60;95.30
55771;DHT22;41687;-33.234;-60.334;2023-04-03T15:01:42;18.70;95.30
55771;DHT22;41687;-33.234;-60.334;2023-04-03T15:04:14;18.70;95.00
55771;DHT22;41687;-33.234;-60.334;2023-04-03T15:06:43;18.50;95.40
55771;DHT22;41687;-33.234;-60.334;2023-04-03T15:09:25;18.40;95.60
55771;DHT22;41687;-33.234;-60.334;2023-04-03T15:11:55;18.30;96.20
55771;DHT22;41687;-33.234;-60.334;2023-04-03T15:14:23;18.40;96.40
55771;DHT22;41687;-33.234;-60.334;2023-04-03T15:16:50;18.50;95.70
55771;DHT22;41687;-33.234;-60.334;2023-04-03T15:19:18;18.50;95.70
55771;DHT22;41687;-33.234;-60.334;2023-04-03T15:21:46;18.60;95.00
55771;DHT22;41687;-33.234;-60.334;2023-04-03T15:24:13;18.70;95.10
55771;DHT22;41687;-33.234;-60.334;2023-04-03T15:26:41;18.70;95.00
55771;DHT22;41687;-33.234;-60.334;2023-04-03T15:29:08;18.90;94.70
55771;DHT22;41687;-33.234;-60.334;2023-04-03T15:31:37;18.90;94.50
55771;DHT22;41687;-33.234;-60.334;2023-04-03T15:34:04;18.70;94.10
55771;DHT22;41687;-33.234;-60.334;2023-04-03T15:36:32;18.90;94.50
55771;DHT22;41687;-33.234;-60.334;2023-04-03T15:38:59;18.90;93.70
55771;DHT22;41687;-33.234;-60.334;2023-04-03T15:41:27;18.70;93.80
55771;DHT22;41687;-33.234;-60.334;2023-04-03T15:43:55;18.50;93.80
55771;DHT22;41687;-33.234;-60.334;2023-04-03T15:46:22;18.30;94.10
55771;DHT22;41687;-33.234;-60.334;2023-04-03T15:48:49;18.60;94.10
55771;DHT22;41687;-33.234;-60.334;2023-04-03T15:51:17;18.70;94.20
55771;DHT22;41687;-33.234;-60.334;2023-04-03T15:53:45;18.80;94.20
55771;DHT22;41687;-33.234;-60.334;2023-04-03T15:56:12;19.00;93.90
55771;DHT22;41687;-33.234;-60.334;2023-04-03T15:58:40;19.00;93.20
55771;DHT22;41687;-33.234;-60.334;2023-04-03T16:01:10;18.70;93.00
55771;DHT22;41687;-33.234;-60.334;2023-04-03T16:03:40;18.90;93.40
55771;DHT22;41687;-33.234;-60.334;2023-04-03T16:06:14;18.90;92.90
55771;DHT22;41687;-33.234;-60.334;2023-04-03T16:08:42;19.10;92.90
55771;DHT22;41687;-33.234;-60.334;2023-04-03T16:11:10;19.20;92.80
55771;DHT22;41687;-33.234;-60.334;2023-04-03T16:13:41;19.20;92.50
55771;DHT22;41687;-33.234;-60.334;2023-04-03T16:16:09;19.20;93.00
55771;DHT22;41687;-33.234;-60.334;2023-04-03T16:18:37;19.10;93.00
55771;DHT22;41687;-33.234;-60.334;2023-04-03T16:21:06;19.30;92.90
55771;DHT22;41687;-33.234;-60.334;2023-04-03T16:23:35;19.40;93.00
55771;DHT22;41687;-33.234;-60.334;2023-04-03T16:26:03;19.20;92.90
55771;DHT22;41687;-33.234;-60.334;2023-04-03T16:28:30;19.10;92.90
55771;DHT22;41687;-33.234;-60.334;2023-04-03T16:30:58;19.10;93.30
55771;DHT22;41687;-33.234;-60.334;2023-04-03T16:33:28;19.40;93.00
55771;DHT22;41687;-33.234;-60.334;2023-04-03T16:35:56;19.40;93.00
55771;DHT22;41687;-33.234;-60.334;2023-04-03T16:38:24;19.60;92.80
55771;DHT22;41687;-33.234;-60.334;2023-04-03T16:40:51;19.70;92.70
55771;DHT22;41687;-33.234;-60.334;2023-04-03T16:43:24;19.60;92.40
55771;DHT22;41687;-33.234;-60.334;2023-04-03T16:45:52;19.60;92.10
55771;DHT22;41687;-33.234;-60.334;2023-04-03T16:48:19;19.80;92.30
55771;DHT22;41687;-33.234;-60.334;2023-04-03T16:50:48;19.80;92.10
55771;DHT22;41687;-33.234;-60.334;2023-04-03T16:53:21;19.70;91.70
55771;DHT22;41687;-33.234;-60.334;2023-04-03T16:55:49;20.00;92.30
55771;DHT22;41687;-33.234;-60.334;2023-04-03T16:58:17;19.80;92.00
55771;DHT22;41687;-33.234;-60.334;2023-04-03T17:00:44;20.20;92.20
55771;DHT22;41687;-33.234;-60.334;2023-04-03T17:03:14;20.30;91.20
55771;DHT22;41687;-33.234;-60.334;2023-04-03T17:05:41;20.30;91.60